VYNT

Nay Pyi Taw International Airport

Airport
ICAO code
VYNT
IATA Code
NYT
Summary
ICAO Region
APAC
ICAO Territory
Location

Pyinmana, Naypyidaw Union Territory

Serving
Nay Pyi Taw
Elevation
109 ft
Coordinates
19° 36' 54" N , 96° 12' 47" E
KCC
Metar
Observation
VYNT 280600Z 16004KT 7000 HZ NSC 32/16 Q1011
Station
Namtu Airport
Date/Time
2023-01-28 06:00:00
Wind direction
160°
Wind speed
04 kts
Lowest cloud amount
nil significant cloud
Temperature
32°C
Dew point
16°C
Humidity
38%
QNH
1011 hPa
Weather condition
n/a

Nay Pyi Taw International Airport, previously known as Ela Airport, is located 16 km southeast of Nay Pyi Taw, the capital of Myanmar.

Climatology

Tropical Savanna climate (Köppen climate classification Aw)

Airport map

Aerial View

SKYbrary Partners:

Safety knowledge contributed by: